Time;durP1;ratioP1;P1;durP2;ratioP2;P2;SDS_P1;SDS_P2;PMS_P1;PMS_P2;Temp;Humidity;BMP_temperature;BMP_pressure;BME280_temperature;BME280_humidity;BME280_pressure;Samples;Min_cycle;Max_cycle;Signal;HPM_P1;HPM_P2
2021/10/29 00:02:03;;;;;;;0.52;0.52;;;;;;;-2.63;70.47;97659.34;5051499;28;20119;-61
2021/10/29 00:04:29;;;;;;;0.50;0.50;;;;;;;-2.74;70.62;97671.31;5051693;28;20053;-60
2021/10/29 00:06:55;;;;;;;0.30;0.30;;;;;;;-2.83;70.48;97678.59;5033978;28;20037;-60
2021/10/29 00:09:21;;;;;;;0.32;0.32;;;;;;;-2.90;70.47;97683.84;5051984;28;20056;-60
2021/10/29 00:11:46;;;;;;;0.40;0.40;;;;;;;-2.95;70.24;97696.97;5055689;28;20115;-62
2021/10/29 00:14:12;;;;;;;0.30;0.30;;;;;;;-3.00;70.06;97708.22;5055681;28;20487;-59
2021/10/29 00:16:38;;;;;;;0.30;0.30;;;;;;;-3.04;69.67;97711.44;5055977;28;20036;-60
2021/10/29 00:19:04;;;;;;;0.35;0.35;;;;;;;-3.12;69.58;97703.41;5056056;28;20429;-59
2021/10/29 00:21:30;;;;;;;0.45;0.45;;;;;;;-3.20;69.58;97731.97;5055717;28;20068;-59
2021/10/29 00:23:58;;;;;;;0.30;0.30;;;;;;;-3.21;69.29;97729.47;5055524;28;20045;-59
2021/10/29 00:26:24;;;;;;;0.30;0.30;;;;;;;-3.25;69.08;97737.03;5055579;28;20471;-61
2021/10/29 00:28:50;;;;;;;0.32;0.32;;;;;;;-3.29;68.92;97738.41;5055970;28;20068;-62
2021/10/29 00:31:16;;;;;;;0.30;0.30;;;;;;;-3.32;68.74;97740.59;5055130;28;20037;-61
2021/10/29 00:33:41;;;;;;;0.30;0.30;;;;;;;-3.39;68.69;97748.50;5055439;28;20120;-61
2021/10/29 00:36:07;;;;;;;0.30;0.30;;;;;;;-3.46;68.36;97755.56;5055742;28;20128;-61
2021/10/29 00:38:33;;;;;;;0.30;0.30;;;;;;;-3.57;68.46;97762.97;5055680;28;20044;-61
2021/10/29 00:40:59;;;;;;;0.50;0.50;;;;;;;-3.65;68.38;97768.34;5055401;28;20040;-62
2021/10/29 00:43:24;;;;;;;0.30;0.30;;;;;;;-3.73;68.34;97774.53;5055398;28;20067;-61
2021/10/29 00:45:50;;;;;;;0.38;0.38;;;;;;;-3.80;68.28;97770.88;5037750;28;20049;-60
2021/10/29 00:48:16;;;;;;;0.32;0.32;;;;;;;-3.81;68.36;97779.09;5055627;28;20510;-61
2021/10/29 00:50:42;;;;;;;0.40;0.40;;;;;;;-3.77;68.00;97762.50;5055526;28;20047;-60
2021/10/29 00:53:09;;;;;;;0.50;0.50;;;;;;;-3.79;67.80;97764.50;5055270;28;20062;-62
2021/10/29 00:55:35;;;;;;;2.42;0.77;;;;;;;-3.79;67.84;97769.88;5056428;28;20128;-60
2021/10/29 00:58:01;;;;;;;0.82;0.82;;;;;;;-3.78;67.62;97768.88;5074990;28;20094;-61
2021/10/29 01:00:26;;;;;;;0.60;0.60;;;;;;;-3.80;67.45;97786.97;5074945;28;20040;-61
2021/10/29 01:02:52;;;;;;;0.70;0.70;;;;;;;-3.80;67.20;97786.13;5074659;28;20139;-60
2021/10/29 01:05:19;;;;;;;0.95;0.82;;;;;;;-3.82;67.26;97786.31;5075284;28;20040;-62
2021/10/29 01:07:45;;;;;;;0.90;0.82;;;;;;;-3.74;66.97;97804.22;5057354;28;20048;-60
2021/10/29 01:10:11;;;;;;;1.13;0.65;;;;;;;-3.71;66.77;97801.19;5074758;28;20403;-60
2021/10/29 01:12:37;;;;;;;0.50;0.50;;;;;;;-3.71;66.76;97804.75;5059454;28;20052;-60
2021/10/29 01:15:04;;;;;;;1.20;0.80;;;;;;;-3.67;66.70;97807.91;5054967;28;20041;-62
2021/10/29 01:17:30;;;;;;;0.90;0.85;;;;;;;-3.66;66.44;97819.50;5055059;28;20411;-60
2021/10/29 01:19:58;;;;;;;0.40;0.40;;;;;;;-3.68;66.38;97817.00;5036876;28;20385;-62
2021/10/29 01:22:25;;;;;;;0.40;0.40;;;;;;;-3.72;66.62;97819.16;5054010;28;20048;-62
2021/10/29 01:24:52;;;;;;;0.40;0.40;;;;;;;-3.70;66.07;97825.19;5054572;28;20048;-61
2021/10/29 01:27:19;;;;;;;0.55;0.55;;;;;;;-3.66;66.17;97838.28;5054852;28;20045;-60
2021/10/29 01:29:47;;;;;;;0.50;0.50;;;;;;;-3.65;65.93;97831.88;5054655;28;20068;-60
2021/10/29 01:32:13;;;;;;;0.60;0.60;;;;;;;-3.64;65.78;97822.84;5054807;28;20033;-61
2021/10/29 01:34:41;;;;;;;0.88;0.88;;;;;;;-3.60;65.81;97840.28;5054794;28;20447;-61
2021/10/29 01:37:09;;;;;;;0.60;0.60;;;;;;;-3.59;65.56;97844.63;5054738;28;20518;-60
2021/10/29 01:39:36;;;;;;;0.43;0.43;;;;;;;-3.58;65.53;97849.84;5054234;28;20131;-61
2021/10/29 01:42:02;;;;;;;0.60;0.60;;;;;;;-3.56;65.27;97849.69;5054307;28;20049;-59
2021/10/29 01:44:28;;;;;;;0.65;0.65;;;;;;;-3.61;65.46;97852.84;5054079;28;20082;-60
2021/10/29 01:46:54;;;;;;;3.15;0.80;;;;;;;-3.75;65.68;97862.41;5054400;28;20124;-61
2021/10/29 01:49:20;;;;;;;0.65;0.65;;;;;;;-3.85;66.04;97858.22;5054190;28;20041;-61
2021/10/29 01:51:46;;;;;;;0.52;0.52;;;;;;;-4.01;66.31;97851.81;5054004;28;20075;-59
2021/10/29 01:54:12;;;;;;;0.60;0.50;;;;;;;-4.10;66.42;97869.75;5053805;28;20625;-61
2021/10/29 01:56:39;;;;;;;0.60;0.60;;;;;;;-4.16;66.41;97877.63;5053912;28;20044;-61
2021/10/29 01:59:05;;;;;;;1.05;0.50;;;;;;;-4.26;66.51;97881.25;5053995;28;20060;-61
2021/10/29 02:01:31;;;;;;;0.32;0.32;;;;;;;-4.36;66.46;97899.31;5053249;28;20072;-59
2021/10/29 02:03:57;;;;;;;0.50;0.50;;;;;;;-4.39;66.58;97905.00;5053997;28;20045;-61
2021/10/29 02:06:23;;;;;;;0.65;0.60;;;;;;;-4.35;66.29;97909.06;5053723;28;20051;-61
2021/10/29 02:08:48;;;;;;;0.30;0.30;;;;;;;-4.31;66.11;97921.13;5053765;28;20060;-61
2021/10/29 02:11:14;;;;;;;0.40;0.40;;;;;;;-4.31;65.96;97923.81;5053651;28;20128;-61
2021/10/29 02:13:40;;;;;;;0.60;0.40;;;;;;;-4.26;65.76;97939.41;5053670;28;20048;-61
2021/10/29 02:16:06;;;;;;;0.47;0.47;;;;;;;-4.29;65.66;97948.59;5053798;28;20539;-62
2021/10/29 02:18:32;;;;;;;0.43;0.40;;;;;;;-4.35;65.68;97965.34;5035601;28;20047;-62
2021/10/29 02:20:58;;;;;;;1.10;0.68;;;;;;;-4.40;65.57;97965.00;5053781;28;20075;-62
2021/10/29 02:23:25;;;;;;;0.40;0.40;;;;;;;-4.46;65.52;97973.66;5053668;28;20083;-62
2021/10/29 02:25:50;;;;;;;0.47;0.47;;;;;;;-4.56;65.78;97971.09;5053622;28;20064;-63
2021/10/29 02:28:18;;;;;;;0.40;0.40;;;;;;;-4.67;66.04;97966.00;5053565;28;20076;-61
2021/10/29 02:30:45;;;;;;;0.50;0.50;;;;;;;-4.78;66.01;97956.41;5053154;28;20041;-61
2021/10/29 02:33:12;;;;;;;0.70;0.70;;;;;;;-4.91;66.36;97959.50;5052534;28;20491;-62
2021/10/29 02:35:38;;;;;;;0.75;0.75;;;;;;;-4.99;66.45;97968.34;5053037;28;20044;-62
2021/10/29 02:38:04;;;;;;;0.70;0.70;;;;;;;-5.07;66.51;97989.69;5053320;28;20049;-63
2021/10/29 02:40:30;;;;;;;0.85;0.68;;;;;;;-5.13;66.46;97990.31;5053858;28;20048;-62
2021/10/29 02:42:57;;;;;;;4.22;0.88;;;;;;;-5.18;66.42;97996.13;5053067;28;20604;-62
2021/10/29 02:45:22;;;;;;;1.50;0.98;;;;;;;-5.24;66.38;98010.13;5053757;28;20040;-61
2021/10/29 02:47:48;;;;;;;0.90;0.90;;;;;;;-5.29;66.47;98013.25;5053545;28;20534;-62
2021/10/29 02:50:16;;;;;;;1.73;0.70;;;;;;;-5.33;66.26;98017.25;5053129;28;20049;-62
2021/10/29 02:52:42;;;;;;;0.50;0.50;;;;;;;-5.34;66.10;98033.47;5052709;28;20131;-62
2021/10/29 02:55:09;;;;;;;0.82;0.65;;;;;;;-5.38;66.00;98030.25;5052896;28;20044;-62
2021/10/29 02:57:36;;;;;;;0.82;0.70;;;;;;;-5.35;65.96;98031.78;5034956;28;20047;-62
2021/10/29 03:00:08;;;;;;;0.40;0.40;;;;;;;-5.26;65.65;98033.53;5052935;28;20045;-62
2021/10/29 03:02:35;;;;;;;0.30;0.30;;;;;;;-5.26;65.34;98040.72;5052942;28;20694;-62
2021/10/29 03:05:01;;;;;;;0.57;0.50;;;;;;;-5.30;65.37;98049.06;5052816;28;20238;-62
2021/10/29 03:07:27;;;;;;;0.38;0.38;;;;;;;-5.33;65.32;98069.91;5052744;28;20041;-62
2021/10/29 03:09:54;;;;;;;0.50;0.50;;;;;;;-5.34;65.36;98065.56;5035586;28;20418;-62
2021/10/29 03:12:20;;;;;;;0.40;0.40;;;;;;;-5.38;65.48;98072.22;5053231;28;20045;-65
2021/10/29 03:14:45;;;;;;;0.98;0.70;;;;;;;-5.46;65.50;98086.34;5052961;28;20048;-61
2021/10/29 03:17:11;;;;;;;1.10;0.60;;;;;;;-5.51;65.52;98094.81;5052728;28;20053;-62
2021/10/29 03:19:37;;;;;;;0.88;0.60;;;;;;;-5.56;65.49;98094.44;5052695;28;20140;-62
2021/10/29 03:22:03;;;;;;;0.30;0.30;;;;;;;-5.61;65.35;98090.53;5053041;28;20049;-61
2021/10/29 03:24:29;;;;;;;0.55;0.55;;;;;;;-5.65;65.55;98109.53;5052527;28;20491;-62
2021/10/29 03:26:55;;;;;;;0.40;0.40;;;;;;;-5.66;65.36;98105.19;5052859;28;20125;-61
2021/10/29 03:29:22;;;;;;;0.30;0.30;;;;;;;-5.66;65.21;98104.34;5052806;28;20049;-62
2021/10/29 03:31:47;;;;;;;0.40;0.40;;;;;;;-5.63;65.08;98106.72;5052015;28;20388;-63
2021/10/29 03:34:13;;;;;;;0.30;0.30;;;;;;;-5.50;64.88;98111.72;5052447;28;20075;-62
2021/10/29 03:36:40;;;;;;;0.35;0.35;;;;;;;-5.43;64.40;98122.66;5052239;28;20041;-62
2021/10/29 03:39:08;;;;;;;0.50;0.50;;;;;;;-5.39;64.41;98116.84;5052414;28;20044;-62
2021/10/29 03:41:39;;;;;;;0.40;0.40;;;;;;;-5.31;64.27;98122.28;5052369;28;20090;-63
2021/10/29 03:44:35;;;;;;;0.40;0.40;;;;;;;-5.17;63.66;98136.16;5051746;28;20044;-62
2021/10/29 03:47:01;;;;;;;2.47;0.47;;;;;;;-5.01;63.54;98144.34;5048941;28;20044;-62
2021/10/29 03:49:47;;;;;;;0.68;0.60;;;;;;;-4.89;63.26;98152.16;5047667;28;20050;-63
2021/10/29 03:52:26;;;;;;;0.45;0.45;;;;;;;-4.87;63.30;98152.81;5032426;28;20080;-62
2021/10/29 03:54:56;;;;;;;0.40;0.40;;;;;;;-4.83;63.07;98154.22;5050685;28;20457;-62
2021/10/29 03:57:25;;;;;;;0.30;0.30;;;;;;;-4.78;63.09;98170.69;5052440;28;20041;-62
2021/10/29 03:59:53;;;;;;;0.57;0.57;;;;;;;-4.77;62.93;98170.53;5052861;28;20555;-62
2021/10/29 04:02:23;;;;;;;0.40;0.40;;;;;;;-4.78;63.05;98171.50;5051902;28;20041;-62
2021/10/29 04:04:49;;;;;;;1.17;0.40;;;;;;;-4.76;62.91;98180.22;5051990;28;20044;-62
2021/10/29 04:07:16;;;;;;;0.40;0.40;;;;;;;-4.71;62.89;98184.28;5034439;28;20593;-62
2021/10/29 04:09:44;;;;;;;0.40;0.40;;;;;;;-4.73;62.73;98194.31;5052300;28;20083;-64
2021/10/29 04:12:10;;;;;;;0.30;0.30;;;;;;;-4.86;63.00;98181.31;5052469;28;20076;-63
2021/10/29 04:14:36;;;;;;;0.30;0.30;;;;;;;-4.96;63.42;98194.75;5034320;28;20041;-63
2021/10/29 04:17:03;;;;;;;0.50;0.50;;;;;;;-5.02;63.43;98182.84;5034708;28;20071;-62
2021/10/29 04:19:30;;;;;;;0.40;0.40;;;;;;;-5.06;63.50;98205.53;5052497;28;20553;-61
2021/10/29 04:21:57;;;;;;;0.40;0.40;;;;;;;-5.12;63.72;98200.78;5051792;28;20064;-62
2021/10/29 04:24:23;;;;;;;0.40;0.40;;;;;;;-5.19;63.86;98202.38;5018123;28;20056;-63
2021/10/29 04:26:48;;;;;;;0.30;0.30;;;;;;;-5.23;63.88;98204.50;5051896;28;20055;-63
2021/10/29 04:29:16;;;;;;;0.40;0.40;;;;;;;-5.22;63.99;98197.34;5052164;28;20079;-63
2021/10/29 04:31:50;;;;;;;0.40;0.40;;;;;;;-5.17;63.92;98205.75;5048539;28;20074;-64
2021/10/29 04:34:17;;;;;;;0.40;0.40;;;;;;;-5.15;63.74;98211.81;5051357;28;20048;-63
2021/10/29 04:36:43;;;;;;;0.47;0.40;;;;;;;-5.14;63.73;98224.16;5051444;28;20095;-64
2021/10/29 04:39:18;;;;;;;0.80;0.50;;;;;;;-5.08;63.58;98228.09;5051260;28;20049;-63
2021/10/29 04:41:47;;;;;;;0.40;0.40;;;;;;;-5.02;63.52;98220.31;5051991;28;20134;-63
2021/10/29 04:44:14;;;;;;;0.50;0.50;;;;;;;-4.87;63.18;98222.44;5051470;28;20407;-64
2021/10/29 04:46:40;;;;;;;0.43;0.43;;;;;;;-4.64;62.67;98236.25;5051548;28;20132;-65
2021/10/29 04:49:06;;;;;;;0.55;0.55;;;;;;;-4.31;62.02;98244.63;5051441;28;20045;-63
2021/10/29 04:51:33;;;;;;;0.50;0.50;;;;;;;-4.06;61.47;98240.31;5050106;28;20090;-65
2021/10/29 04:54:00;;;;;;;0.77;0.57;;;;;;;-3.83;61.05;98245.16;5051567;28;20055;-62
2021/10/29 04:56:26;;;;;;;0.73;0.73;;;;;;;-3.61;60.59;98241.91;5052926;28;20053;-65
2021/10/29 04:58:52;;;;;;;0.50;0.50;;;;;;;-3.52;60.52;98254.41;5055346;28;20431;-62
2021/10/29 05:01:17;;;;;;;5.88;0.40;;;;;;;-3.36;60.25;98253.66;5054769;28;20049;-65
2021/10/29 05:03:44;;;;;;;0.60;0.40;;;;;;;-3.23;60.36;98247.84;5036983;28;20044;-64
2021/10/29 05:06:10;;;;;;;0.30;0.30;;;;;;;-3.17;60.44;98254.41;5055223;28;20055;-63
2021/10/29 05:08:37;;;;;;;0.20;0.20;;;;;;;-3.38;60.78;98258.34;5055075;28;20053;-62
2021/10/29 05:11:04;;;;;;;0.63;0.63;;;;;;;-3.54;61.16;98248.34;5055319;28;20036;-63
2021/10/29 05:13:30;;;;;;;0.40;0.40;;;;;;;-3.78;61.81;98264.31;5054678;28;20607;-64
2021/10/29 05:15:57;;;;;;;0.32;0.32;;;;;;;-3.85;62.02;98263.25;5055002;28;20487;-64
2021/10/29 05:18:23;;;;;;;0.60;0.60;;;;;;;-3.86;62.14;98262.38;5054932;28;21008;-63
2021/10/29 05:20:49;;;;;;;0.65;0.30;;;;;;;-3.91;62.06;98287.00;5037005;28;20041;-65
2021/10/29 05:23:15;;;;;;;0.22;0.22;;;;;;;-4.01;62.49;98270.16;5036989;28;20044;-66
2021/10/29 05:25:42;;;;;;;0.20;0.20;;;;;;;-4.13;62.52;98268.72;5055174;28;20123;-64
2021/10/29 05:28:09;;;;;;;0.20;0.20;;;;;;;-4.29;62.80;98269.41;5054926;28;20041;-62
2021/10/29 05:30:35;;;;;;;0.20;0.20;;;;;;;-4.36;63.03;98279.91;5054347;28;20048;-62
2021/10/29 05:33:01;;;;;;;2.13;0.30;;;;;;;-4.43;62.80;98287.72;5054781;28;20052;-62
2021/10/29 05:35:27;;;;;;;1.65;0.60;;;;;;;-4.42;62.74;98289.41;5054588;28;20048;-62
2021/10/29 05:37:53;;;;;;;1.95;1.80;;;;;;;-4.34;62.56;98283.28;5055081;28;20410;-63
2021/10/29 05:40:18;;;;;;;2.47;0.90;;;;;;;-4.24;62.13;98307.31;5054492;28;20045;-65
2021/10/29 05:42:44;;;;;;;0.90;0.88;;;;;;;-4.27;62.09;98311.16;5054070;28;20491;-63
2021/10/29 05:45:12;;;;;;;1.02;0.68;;;;;;;-4.29;62.01;98315.81;5054345;28;20076;-62
2021/10/29 05:47:38;;;;;;;0.20;0.20;;;;;;;-4.33;61.81;98317.13;5054103;28;20051;-63
2021/10/29 05:50:08;;;;;;;0.20;0.20;;;;;;;-4.36;62.05;98319.28;5054303;28;20041;-63
2021/10/29 05:52:37;;;;;;;0.30;0.30;;;;;;;-4.31;61.82;98323.19;5054783;28;20071;-62
2021/10/29 05:55:24;;;;;;;0.35;0.35;;;;;;;-4.22;61.50;98319.59;5054134;28;20047;-64
2021/10/29 05:57:51;;;;;;;0.30;0.30;;;;;;;-4.19;61.48;98320.28;5053797;28;20479;-65
2021/10/29 06:00:22;;;;;;;0.50;0.50;;;;;;;-4.20;61.56;98329.31;5053677;28;20095;-64
2021/10/29 06:02:48;;;;;;;0.70;0.70;;;;;;;-4.19;61.56;98339.06;5054796;28;20045;-64
2021/10/29 06:05:14;;;;;;;0.70;0.70;;;;;;;-4.07;61.34;98319.06;5054435;28;20041;-64
2021/10/29 06:07:41;;;;;;;1.30;0.40;;;;;;;-3.91;61.09;98324.56;5053818;28;20065;-62
2021/10/29 06:10:09;;;;;;;2.35;0.95;;;;;;;-3.84;60.98;98329.28;5053976;28;20095;-63
2021/10/29 06:12:37;;;;;;;0.43;0.43;;;;;;;-3.97;61.30;98329.72;5054125;28;20049;-63
2021/10/29 06:15:05;;;;;;;0.40;0.40;;;;;;;-3.96;61.36;98337.59;5053810;28;20127;-64
2021/10/29 06:17:33;;;;;;;1.50;1.10;;;;;;;-3.93;61.44;98337.28;5053351;28;20036;-63
2021/10/29 06:19:59;;;;;;;0.73;0.50;;;;;;;-3.90;61.46;98330.75;5054013;28;20072;-64
2021/10/29 06:22:31;;;;;;;0.75;0.40;;;;;;;-3.81;61.41;98343.25;5053686;28;20060;-64
2021/10/29 06:24:59;;;;;;;0.20;0.20;;;;;;;-3.61;61.14;98346.59;5053726;28;20041;-65
2021/10/29 06:29:51;;;;;;;1.13;0.85;;;;;;;-3.23;60.35;98349.88;5053730;28;20047;-64
2021/10/29 06:32:19;;;;;;;3.20;1.20;;;;;;;-3.04;60.01;98342.59;5053046;28;20063;-64
2021/10/29 06:34:44;;;;;;;2.85;0.88;;;;;;;-2.97;60.06;98345.47;5053579;28;20045;-63
2021/10/29 06:37:15;;;;;;;0.40;0.40;;;;;;;-3.01;60.29;98347.66;5053537;28;20052;-63
2021/10/29 06:39:42;;;;;;;0.40;0.40;;;;;;;-3.15;60.73;98356.28;5053770;28;20099;-62
2021/10/29 06:42:12;;;;;;;1.13;0.55;;;;;;;-3.17;60.88;98359.97;5053951;28;20052;-65
2021/10/29 06:44:48;;;;;;;0.30;0.30;;;;;;;-3.20;61.08;98357.59;5053278;28;20447;-63
2021/10/29 07:00:41;;;;;;;0.52;0.52;;;;;;;-3.39;61.51;98400.78;5037948;28;20052;-64
2021/10/29 07:12:07;;;;;;;0.30;0.30;;;;;;;-3.43;61.34;98412.81;5053405;28;20501;-63
2021/10/29 07:41:50;;;;;;;0.40;0.40;;;;;;;-3.49;60.66;98448.34;5059624;28;20062;-62
2021/10/29 07:44:18;;;;;;;2.92;0.38;;;;;;;-3.41;60.48;98448.41;5058783;28;20079;-65
2021/10/29 07:46:45;;;;;;;0.20;0.20;;;;;;;-3.37;60.27;98449.81;5058513;28;20034;-65
2021/10/29 07:49:11;;;;;;;0.68;0.60;;;;;;;-3.29;60.14;98447.16;5060358;28;20047;-62
2021/10/29 07:51:38;;;;;;;0.32;0.32;;;;;;;-3.14;59.75;98460.03;5060421;28;20043;-62
2021/10/29 07:54:07;;;;;;;0.25;0.25;;;;;;;-3.14;59.82;98455.50;5056936;28;20059;-63
2021/10/29 07:56:33;;;;;;;0.40;0.40;;;;;;;-3.18;59.90;98468.41;5060675;28;20052;-63
2021/10/29 07:58:59;;;;;;;0.77;0.77;;;;;;;-3.21;59.94;98471.41;5060632;28;20048;-63
2021/10/29 08:01:26;;;;;;;0.40;0.40;;;;;;;-3.28;60.09;98470.34;5058337;28;20550;-64
2021/10/29 08:03:51;;;;;;;1.50;0.90;;;;;;;-3.35;60.11;98469.28;5039977;28;20049;-63
2021/10/29 08:06:17;;;;;;;0.80;0.75;;;;;;;-3.39;60.21;98478.63;5061289;28;20062;-64
2021/10/29 08:08:45;;;;;;;0.73;0.60;;;;;;;-3.38;60.31;98475.78;5059298;28;20041;-63
2021/10/29 08:11:10;;;;;;;0.40;0.40;;;;;;;-3.43;60.16;98487.97;5052178;28;20093;-64
2021/10/29 08:13:36;;;;;;;0.40;0.40;;;;;;;-3.50;60.37;98494.94;5058257;28;20509;-63
2021/10/29 08:16:04;;;;;;;0.85;0.43;;;;;;;-3.48;60.33;98495.66;5039673;28;20036;-63
2021/10/29 08:18:32;;;;;;;0.95;0.85;;;;;;;-3.47;60.13;98489.31;5055503;28;20041;-64
2021/10/29 08:20:58;;;;;;;0.65;0.45;;;;;;;-3.48;60.20;98501.03;5059486;28;20070;-61
2021/10/29 08:23:24;;;;;;;0.73;0.73;;;;;;;-3.50;60.06;98503.88;5058557;28;20087;-64
2021/10/29 08:25:51;;;;;;;0.50;0.30;;;;;;;-3.40;59.88;98501.09;5056580;28;20537;-63
2021/10/29 08:28:17;;;;;;;0.50;0.50;;;;;;;-3.29;59.79;98510.78;5048974;28;20384;-62
2021/10/29 08:30:42;;;;;;;0.55;0.30;;;;;;;-3.14;59.21;98524.50;5057413;28;20045;-63
2021/10/29 08:33:08;;;;;;;0.20;0.20;;;;;;;-3.01;59.02;98523.09;5059514;28;20214;-63
2021/10/29 08:35:34;;;;;;;7.95;0.55;;;;;;;-2.90;58.71;98524.69;5055351;28;20130;-64
2021/10/29 08:38:00;;;;;;;0.30;0.30;;;;;;;-2.84;58.76;98525.94;5053621;28;20056;-64
2021/10/29 08:40:26;;;;;;;0.60;0.60;;;;;;;-2.80;58.71;98531.81;5053933;28;20080;-67
2021/10/29 08:42:52;;;;;;;0.40;0.40;;;;;;;-2.80;58.66;98529.13;5053466;28;20049;-64
2021/10/29 08:45:18;;;;;;;0.55;0.55;;;;;;;-2.70;58.59;98535.25;5053554;28;20491;-64
2021/10/29 08:47:46;;;;;;;0.20;0.20;;;;;;;-2.61;58.35;98538.84;5054107;28;20041;-64
2021/10/29 08:50:17;;;;;;;0.43;0.43;;;;;;;-2.66;58.78;98537.47;5053560;28;20076;-62
2021/10/29 08:52:46;;;;;;;0.50;0.50;;;;;;;-2.81;58.92;98533.69;5053061;28;20052;-64
2021/10/29 08:55:14;;;;;;;0.35;0.35;;;;;;;-2.96;59.25;98544.09;5053308;28;20134;-63
2021/10/29 08:57:43;;;;;;;0.68;0.68;;;;;;;-3.06;59.67;98548.72;5053607;28;20295;-63
2021/10/29 09:00:18;;;;;;;0.73;0.73;;;;;;;-3.06;59.53;98563.00;5052888;28;20116;-65
2021/10/29 09:02:57;;;;;;;0.40;0.40;;;;;;;-3.01;59.38;98552.63;5052849;28;20135;-63
2021/10/29 09:05:29;;;;;;;0.50;0.50;;;;;;;-3.01;59.31;98570.59;5053627;28;20111;-63
2021/10/29 09:08:12;;;;;;;0.25;0.25;;;;;;;-3.09;59.39;98566.00;5053439;28;20045;-63
2021/10/29 09:11:11;;;;;;;0.30;0.25;;;;;;;-3.11;59.42;98561.78;5051589;28;20114;-64
2021/10/29 09:33:10;;;;;;;0.43;0.43;;;;;;;-2.45;58.22;98605.34;5034238;28;20091;-63
2021/10/29 09:35:38;;;;;;;0.40;0.40;;;;;;;-2.48;58.36;98617.22;5054015;28;20292;-64
2021/10/29 09:38:13;;;;;;;8.80;0.45;;;;;;;-2.64;58.69;98612.56;5053008;28;21186;-64
2021/10/29 09:40:41;;;;;;;0.20;0.20;;;;;;;-2.73;58.93;98624.25;5051865;28;20044;-63
2021/10/29 09:43:13;;;;;;;0.20;0.20;;;;;;;-2.74;58.97;98623.44;5052024;28;20529;-63
2021/10/29 09:45:47;;;;;;;0.30;0.30;;;;;;;-2.80;58.91;98628.56;5051981;28;20072;-64
2021/10/29 09:48:19;;;;;;;0.43;0.43;;;;;;;-2.85;59.01;98631.72;5052555;28;20056;-63
2021/10/29 09:50:55;;;;;;;0.40;0.40;;;;;;;-2.90;59.10;98626.81;5049393;28;20179;-65
2021/10/29 09:53:39;;;;;;;0.60;0.60;;;;;;;-3.04;59.36;98640.75;5052449;28;20052;-63
2021/10/29 09:56:53;;;;;;;0.68;0.68;;;;;;;-3.15;59.41;98647.19;5052042;28;20040;-63
2021/10/29 09:59:01;;;;;;;1.63;0.60;;;;;;;-3.16;59.40;98637.44;5040433;28;20094;-63
2021/10/29 10:01:31;;;;;;;0.22;0.22;;;;;;;-3.09;59.10;98645.72;5051461;28;20087;-63
2021/10/29 10:04:06;;;;;;;0.30;0.30;;;;;;;-3.11;59.11;98645.03;5052061;28;20048;-62
2021/10/29 10:06:44;;;;;;;;;;;;;;;-3.10;58.99;98633.31;5051523;28;20040;-65
2021/10/29 10:09:10;;;;;;;0.47;0.47;;;;;;;-3.17;59.07;98650.00;5051853;28;19928;-62
2021/10/29 10:11:40;;;;;;;0.35;0.35;;;;;;;-3.23;59.15;98658.69;5050073;28;20127;-62
2021/10/29 10:14:09;;;;;;;0.55;0.45;;;;;;;-3.26;59.10;98661.66;5051601;28;20045;-63
2021/10/29 10:16:39;;;;;;;0.55;0.55;;;;;;;-3.28;59.19;98663.66;5051273;28;20048;-63
2021/10/29 10:19:06;;;;;;;0.85;0.60;;;;;;;-3.26;59.11;98660.84;5054415;28;20041;-61
2021/10/29 10:21:39;;;;;;;0.35;0.35;;;;;;;-3.17;59.04;98676.03;5051545;28;20041;-62
2021/10/29 10:24:11;;;;;;;1.20;1.05;;;;;;;-3.13;58.96;98674.75;5051644;28;20182;-63
2021/10/29 10:40:40;;;;;;;0.32;0.32;;;;;;;-3.05;58.50;98692.78;5051447;28;20043;-62
2021/10/29 10:48:25;;;;;;;0.85;0.65;;;;;;;-2.92;58.32;98713.91;5051344;28;20043;-63
2021/10/29 10:50:55;;;;;;;0.30;0.30;;;;;;;-2.96;58.42;98705.28;5051023;28;20052;-62
2021/10/29 10:53:30;;;;;;;2.67;1.73;;;;;;;-3.04;58.72;98729.41;5045195;28;20061;-63
2021/10/29 10:56:19;;;;;;;0.40;0.40;;;;;;;-3.14;58.94;98733.97;5032144;28;20444;-64
2021/10/29 10:59:25;;;;;;;0.43;0.43;;;;;;;-3.17;58.84;98735.94;5031456;28;20418;-64
2021/10/29 11:10:08;;;;;;;2.08;1.10;;;;;;;-3.35;58.93;98753.84;5031599;28;20085;-64
2021/10/29 11:12:44;;;;;;;0.80;0.40;;;;;;;-3.40;59.00;98751.63;5031649;28;20037;-63
2021/10/29 11:15:14;;;;;;;0.30;0.30;;;;;;;-3.48;59.09;98764.09;5029710;28;20503;-64
2021/10/29 11:17:48;;;;;;;1.58;1.48;;;;;;;-3.54;59.15;98754.78;5031068;28;20041;-63
2021/10/29 11:20:39;;;;;;;3.20;0.73;;;;;;;-3.58;59.12;98754.22;5030622;28;20060;-65
2021/10/29 11:23:26;;;;;;;0.75;0.75;;;;;;;-3.65;59.11;98768.34;5031359;28;20051;-65
2021/10/29 11:26:05;;;;;;;1.80;0.88;;;;;;;-3.71;59.23;98761.72;5030103;28;20459;-64
2021/10/29 11:28:36;;;;;;;0.63;0.63;;;;;;;-3.70;59.42;98774.16;5029400;28;20133;-63
2021/10/29 11:31:23;;;;;;;0.70;0.70;;;;;;;-3.72;58.92;98778.84;5031755;28;20053;-64
2021/10/29 11:34:15;;;;;;;2.95;1.05;;;;;;;-3.73;58.91;98775.28;5031093;28;20049;-63
2021/10/29 11:36:44;;;;;;;1.08;0.93;;;;;;;-3.76;58.98;98793.53;5030775;28;20076;-64
2021/10/29 11:39:13;;;;;;;2.15;1.40;;;;;;;-3.79;58.94;98778.56;5030694;28;20112;-65
2021/10/29 11:41:52;;;;;;;0.73;0.70;;;;;;;-3.76;58.73;98789.00;5035161;28;20052;-66
2021/10/29 11:44:38;;;;;;;1.10;0.65;;;;;;;-3.79;58.75;98788.44;5018458;28;20424;-64
2021/10/29 11:47:05;;;;;;;0.55;0.50;;;;;;;-3.83;58.65;98792.41;5031010;28;20049;-64
2021/10/29 11:49:31;;;;;;;1.60;0.60;;;;;;;-3.88;58.79;98790.16;5030487;28;20096;-65
2021/10/29 11:52:01;;;;;;;0.50;0.50;;;;;;;-3.93;58.81;98793.28;5031050;28;20037;-63
2021/10/29 11:54:50;;;;;;;2.10;1.52;;;;;;;-3.92;58.81;98788.75;5044826;28;20053;-64
2021/10/29 11:57:31;;;;;;;0.55;0.55;;;;;;;-4.01;58.75;98798.50;5032100;28;20049;-65
2021/10/29 12:00:17;;;;;;;4.47;1.00;;;;;;;-4.18;59.25;98809.91;5051475;28;20531;-63
2021/10/29 12:08:23;;;;;;;0.73;0.63;;;;;;;-4.70;60.18;98799.44;5057077;28;20110;-67
2021/10/29 12:10:50;;;;;;;0.77;0.75;;;;;;;-4.80;59.94;98804.75;5054444;28;20085;-63
2021/10/29 12:13:16;;;;;;;2.15;1.40;;;;;;;-4.86;60.12;98810.66;5056939;28;20511;-64
2021/10/29 12:15:42;;;;;;;0.60;0.60;;;;;;;-4.96;60.06;98821.34;5056882;28;20101;-64
2021/10/29 12:18:09;;;;;;;1.60;0.95;;;;;;;-5.05;60.26;98828.38;5056540;28;20392;-65
2021/10/29 12:20:41;;;;;;;1.85;1.35;;;;;;;-5.17;60.26;98821.41;5056342;28;20508;-65
2021/10/29 12:23:12;;;;;;;1.88;1.30;;;;;;;-5.25;60.32;98826.59;5056537;28;20040;-63
2021/10/29 12:25:53;;;;;;;1.67;1.58;;;;;;;-5.32;60.32;98836.97;5056681;28;20045;-69
2021/10/29 13:03:45;;;;;;;0.77;0.77;;;;;;;-5.86;60.09;98897.72;5062880;28;20136;-64
2021/10/29 13:06:17;;;;;;;1.90;0.77;;;;;;;-5.88;60.13;98891.66;5065925;28;20037;-66
2021/10/29 13:08:48;;;;;;;1.30;1.13;;;;;;;-5.86;60.28;98895.06;5063625;28;20037;-64
2021/10/29 13:11:15;;;;;;;7.47;1.02;;;;;;;-5.89;60.10;98897.97;5062361;28;20036;-63
2021/10/29 13:13:45;;;;;;;1.92;1.15;;;;;;;-5.91;60.32;98916.84;5065937;28;20148;-65
2021/10/29 13:16:14;;;;;;;0.70;0.70;;;;;;;-5.91;60.31;98921.34;5065390;28;20033;-67
2021/10/29 13:26:44;;;;;;;1.15;1.00;;;;;;;-5.87;60.20;98914.78;5063844;28;20037;-67
2021/10/29 13:35:06;;;;;;;2.05;1.20;;;;;;;-5.90;60.41;98934.59;5060789;28;20079;-65
2021/10/29 13:56:15;;;;;;;1.17;1.08;;;;;;;-5.87;60.74;98922.78;5023857;28;20072;-64
2021/10/29 14:28:44;;;;;;;1.05;0.80;;;;;;;-5.19;60.52;98970.63;5040270;28;20270;-65
2021/10/29 14:31:16;;;;;;;1.80;1.27;;;;;;;-5.24;60.64;98959.44;5034125;28;20042;-64
2021/10/29 14:33:49;;;;;;;0.68;0.68;;;;;;;-5.30;60.84;98967.03;5041635;28;20385;-64
2021/10/29 14:36:15;;;;;;;1.63;0.80;;;;;;;-5.31;60.87;98964.47;5041669;28;20119;-64
2021/10/29 14:38:52;;;;;;;1.08;0.65;;;;;;;-5.37;61.17;98963.16;5041138;28;20496;-61
2021/10/29 14:41:26;;;;;;;1.02;0.93;;;;;;;-5.34;61.28;98970.94;5040082;28;20494;-64
2021/10/29 14:44:04;;;;;;;1.67;0.82;;;;;;;-5.30;61.17;98974.19;5032520;28;20518;-64
2021/10/29 14:46:39;;;;;;;0.70;0.70;;;;;;;-5.24;61.18;98971.03;5037939;28;20072;-63
2021/10/29 14:49:27;;;;;;;1.25;1.15;;;;;;;-5.24;61.03;98967.47;5036311;28;20056;-63
2021/10/29 15:03:06;;;;;;;1.23;1.13;;;;;;;-5.41;61.55;98955.53;5032401;28;20091;-63
2021/10/29 15:45:35;;;;;;;;;;;;;;;-5.55;61.31;98986.09;5031863;28;20037;-61
2021/10/29 15:48:08;;;;;;;5.28;2.97;;;;;;;-5.57;61.04;98996.09;5030269;28;20406;-62
2021/10/29 15:50:35;;;;;;;4.32;3.33;;;;;;;-5.57;61.22;98986.25;5029960;28;20045;-62
2021/10/29 15:53:03;;;;;;;3.65;2.80;;;;;;;-5.51;61.25;98998.25;5031242;28;20850;-61
2021/10/29 15:58:26;;;;;;;5.30;1.88;;;;;;;-5.42;61.24;98997.47;5028295;28;20038;-63
2021/10/29 16:01:11;;;;;;;1.77;1.52;;;;;;;-5.41;61.36;99012.56;5027303;28;20072;-61